sensor_id;sensor_type;location;lat;lon;timestamp;temperature;humidity
19389;DHT22;9830;41.876;23.474;2024-02-21T00:00:53;-0.40;99.90
19389;DHT22;9830;41.876;23.474;2024-02-21T00:03:19;-0.40;99.90
19389;DHT22;9830;41.876;23.474;2024-02-21T00:05:45;-0.40;99.90
19389;DHT22;9830;41.876;23.474;2024-02-21T00:08:10;-0.40;99.90
19389;DHT22;9830;41.876;23.474;2024-02-21T00:10:36;-0.40;99.90
19389;DHT22;9830;41.876;23.474;2024-02-21T00:13:02;-0.50;99.90
19389;DHT22;9830;41.876;23.474;2024-02-21T00:15:28;-0.50;99.90
19389;DHT22;9830;41.876;23.474;2024-02-21T00:17:54;-0.50;99.90
19389;DHT22;9830;41.876;23.474;2024-02-21T00:20:20;-0.40;99.90
19389;DHT22;9830;41.876;23.474;2024-02-21T00:22:46;-0.30;99.90
19389;DHT22;9830;41.876;23.474;2024-02-21T00:25:12;-0.30;99.90
19389;DHT22;9830;41.876;23.474;2024-02-21T00:27:38;-0.30;99.90
19389;DHT22;9830;41.876;23.474;2024-02-21T00:30:05;-0.30;99.90
19389;DHT22;9830;41.876;23.474;2024-02-21T00:32:31;-0.20;99.90
19389;DHT22;9830;41.876;23.474;2024-02-21T00:34:57;-0.10;99.90
19389;DHT22;9830;41.876;23.474;2024-02-21T00:37:23;-0.10;99.90
19389;DHT22;9830;41.876;23.474;2024-02-21T00:39:49;-0.10;99.90
19389;DHT22;9830;41.876;23.474;2024-02-21T00:42:14;-0.10;99.90
19389;DHT22;9830;41.876;23.474;2024-02-21T00:44:40;-0.10;99.90
19389;DHT22;9830;41.876;23.474;2024-02-21T00:47:06;0.00;99.90
19389;DHT22;9830;41.876;23.474;2024-02-21T00:49:31;0.00;99.90
19389;DHT22;9830;41.876;23.474;2024-02-21T00:51:57;0.00;99.90
19389;DHT22;9830;41.876;23.474;2024-02-21T00:54:22;0.00;99.90
19389;DHT22;9830;41.876;23.474;2024-02-21T00:56:48;0.00;99.90
19389;DHT22;9830;41.876;23.474;2024-02-21T00:59:14;0.00;99.90
19389;DHT22;9830;41.876;23.474;2024-02-21T01:01:40;0.00;99.90
19389;DHT22;9830;41.876;23.474;2024-02-21T01:04:09;0.00;99.90
19389;DHT22;9830;41.876;23.474;2024-02-21T01:06:34;0.10;99.90
19389;DHT22;9830;41.876;23.474;2024-02-21T01:09:00;0.10;99.90
19389;DHT22;9830;41.876;23.474;2024-02-21T01:11:26;0.10;99.90
19389;DHT22;9830;41.876;23.474;2024-02-21T01:13:51;0.10;99.90
19389;DHT22;9830;41.876;23.474;2024-02-21T01:16:17;0.20;99.90
19389;DHT22;9830;41.876;23.474;2024-02-21T01:18:43;0.20;99.90
19389;DHT22;9830;41.876;23.474;2024-02-21T01:21:08;0.20;99.90
19389;DHT22;9830;41.876;23.474;2024-02-21T01:23:35;0.10;99.90
19389;DHT22;9830;41.876;23.474;2024-02-21T01:26:02;0.20;99.90
19389;DHT22;9830;41.876;23.474;2024-02-21T01:28:28;0.30;99.90
19389;DHT22;9830;41.876;23.474;2024-02-21T01:30:54;0.20;99.90
19389;DHT22;9830;41.876;23.474;2024-02-21T01:33:19;0.20;99.90
19389;DHT22;9830;41.876;23.474;2024-02-21T01:35:45;0.30;99.90
19389;DHT22;9830;41.876;23.474;2024-02-21T01:38:12;0.50;99.90
19389;DHT22;9830;41.876;23.474;2024-02-21T01:40:38;0.40;99.90
19389;DHT22;9830;41.876;23.474;2024-02-21T01:43:14;0.30;99.90
19389;DHT22;9830;41.876;23.474;2024-02-21T01:45:40;0.30;99.90
19389;DHT22;9830;41.876;23.474;2024-02-21T01:48:06;0.40;99.90
19389;DHT22;9830;41.876;23.474;2024-02-21T01:50:32;0.50;99.90
19389;DHT22;9830;41.876;23.474;2024-02-21T01:52:59;0.60;99.90
19389;DHT22;9830;41.876;23.474;2024-02-21T01:55:25;0.50;99.90
19389;DHT22;9830;41.876;23.474;2024-02-21T01:57:50;0.50;99.90
19389;DHT22;9830;41.876;23.474;2024-02-21T02:00:17;0.50;99.90
19389;DHT22;9830;41.876;23.474;2024-02-21T02:02:44;0.50;99.90
19389;DHT22;9830;41.876;23.474;2024-02-21T02:05:11;0.50;99.90
19389;DHT22;9830;41.876;23.474;2024-02-21T02:07:37;0.50;99.90
19389;DHT22;9830;41.876;23.474;2024-02-21T02:10:03;0.50;99.90
19389;DHT22;9830;41.876;23.474;2024-02-21T02:12:29;0.50;99.90
19389;DHT22;9830;41.876;23.474;2024-02-21T02:15:02;0.40;99.90
19389;DHT22;9830;41.876;23.474;2024-02-21T02:17:30;0.30;99.90
19389;DHT22;9830;41.876;23.474;2024-02-21T02:19:56;0.30;99.90
19389;DHT22;9830;41.876;23.474;2024-02-21T02:22:29;0.30;99.90
19389;DHT22;9830;41.876;23.474;2024-02-21T02:24:57;0.20;99.90
19389;DHT22;9830;41.876;23.474;2024-02-21T02:27:23;0.10;99.90
19389;DHT22;9830;41.876;23.474;2024-02-21T02:29:49;0.20;99.90
19389;DHT22;9830;41.876;23.474;2024-02-21T02:32:16;0.20;99.90
19389;DHT22;9830;41.876;23.474;2024-02-21T02:34:41;0.20;99.90
19389;DHT22;9830;41.876;23.474;2024-02-21T02:37:07;0.20;99.90
19389;DHT22;9830;41.876;23.474;2024-02-21T02:39:33;0.20;99.90
19389;DHT22;9830;41.876;23.474;2024-02-21T02:41:58;0.30;99.90
19389;DHT22;9830;41.876;23.474;2024-02-21T02:44:24;0.20;99.90
19389;DHT22;9830;41.876;23.474;2024-02-21T02:46:50;0.20;99.90
19389;DHT22;9830;41.876;23.474;2024-02-21T02:49:15;0.30;99.90
19389;DHT22;9830;41.876;23.474;2024-02-21T02:51:42;0.40;99.90
19389;DHT22;9830;41.876;23.474;2024-02-21T02:54:11;0.40;99.90
19389;DHT22;9830;41.876;23.474;2024-02-21T02:56:37;0.40;99.90
19389;DHT22;9830;41.876;23.474;2024-02-21T02:59:02;0.40;99.90
19389;DHT22;9830;41.876;23.474;2024-02-21T03:01:28;0.40;99.90
19389;DHT22;9830;41.876;23.474;2024-02-21T03:03:54;0.30;99.90
19389;DHT22;9830;41.876;23.474;2024-02-21T03:06:20;0.20;99.90
19389;DHT22;9830;41.876;23.474;2024-02-21T03:08:45;0.30;99.90
19389;DHT22;9830;41.876;23.474;2024-02-21T03:11:11;0.30;99.90
19389;DHT22;9830;41.876;23.474;2024-02-21T03:13:37;0.20;99.90
19389;DHT22;9830;41.876;23.474;2024-02-21T03:16:03;0.20;99.90
19389;DHT22;9830;41.876;23.474;2024-02-21T03:18:29;0.30;99.90
19389;DHT22;9830;41.876;23.474;2024-02-21T03:20:54;0.20;99.90
19389;DHT22;9830;41.876;23.474;2024-02-21T03:23:20;0.20;99.90
19389;DHT22;9830;41.876;23.474;2024-02-21T03:25:46;0.20;99.90
19389;DHT22;9830;41.876;23.474;2024-02-21T03:28:11;0.20;99.90
19389;DHT22;9830;41.876;23.474;2024-02-21T03:30:37;0.30;99.90
19389;DHT22;9830;41.876;23.474;2024-02-21T03:33:03;0.20;99.90
19389;DHT22;9830;41.876;23.474;2024-02-21T03:35:29;0.20;99.90
19389;DHT22;9830;41.876;23.474;2024-02-21T03:37:55;0.20;99.90
19389;DHT22;9830;41.876;23.474;2024-02-21T03:40:21;0.20;99.90
19389;DHT22;9830;41.876;23.474;2024-02-21T03:42:46;0.20;99.90
19389;DHT22;9830;41.876;23.474;2024-02-21T03:45:12;0.30;99.90
19389;DHT22;9830;41.876;23.474;2024-02-21T03:47:38;0.20;99.90
19389;DHT22;9830;41.876;23.474;2024-02-21T03:50:04;0.20;99.90
19389;DHT22;9830;41.876;23.474;2024-02-21T03:52:30;0.10;99.90
19389;DHT22;9830;41.876;23.474;2024-02-21T03:54:56;0.10;99.90
19389;DHT22;9830;41.876;23.474;2024-02-21T03:57:21;0.00;99.90
19389;DHT22;9830;41.876;23.474;2024-02-21T03:59:50;0.00;99.90
19389;DHT22;9830;41.876;23.474;2024-02-21T04:02:16;0.00;99.90
19389;DHT22;9830;41.876;23.474;2024-02-21T04:04:43;-0.10;99.90
19389;DHT22;9830;41.876;23.474;2024-02-21T04:07:12;-0.20;99.90
19389;DHT22;9830;41.876;23.474;2024-02-21T04:09:38;-0.30;99.90
19389;DHT22;9830;41.876;23.474;2024-02-21T04:12:04;-0.40;99.90
19389;DHT22;9830;41.876;23.474;2024-02-21T04:14:30;-0.40;99.90
19389;DHT22;9830;41.876;23.474;2024-02-21T04:16:55;-0.50;99.90
19389;DHT22;9830;41.876;23.474;2024-02-21T04:19:21;-0.60;99.90
19389;DHT22;9830;41.876;23.474;2024-02-21T04:21:47;-0.60;99.90
19389;DHT22;9830;41.876;23.474;2024-02-21T04:24:12;-0.70;99.90
19389;DHT22;9830;41.876;23.474;2024-02-21T04:26:38;-0.80;99.90
19389;DHT22;9830;41.876;23.474;2024-02-21T04:29:04;-0.90;99.90
19389;DHT22;9830;41.876;23.474;2024-02-21T04:31:32;-0.90;99.90
19389;DHT22;9830;41.876;23.474;2024-02-21T04:33:58;-1.00;99.90
19389;DHT22;9830;41.876;23.474;2024-02-21T04:36:23;-1.10;99.90
19389;DHT22;9830;41.876;23.474;2024-02-21T04:38:49;-1.10;99.90
19389;DHT22;9830;41.876;23.474;2024-02-21T04:41:15;-1.20;99.90
19389;DHT22;9830;41.876;23.474;2024-02-21T04:43:41;-1.20;99.90
19389;DHT22;9830;41.876;23.474;2024-02-21T04:46:07;-1.30;99.90
19389;DHT22;9830;41.876;23.474;2024-02-21T04:48:32;-1.40;99.90
19389;DHT22;9830;41.876;23.474;2024-02-21T04:50:59;-1.40;99.90
19389;DHT22;9830;41.876;23.474;2024-02-21T04:53:24;-1.60;99.90
19389;DHT22;9830;41.876;23.474;2024-02-21T04:55:50;-1.60;99.90
19389;DHT22;9830;41.876;23.474;2024-02-21T04:58:16;-1.60;99.90
19389;DHT22;9830;41.876;23.474;2024-02-21T05:00:41;-1.60;99.90
19389;DHT22;9830;41.876;23.474;2024-02-21T05:03:07;-1.60;99.90
19389;DHT22;9830;41.876;23.474;2024-02-21T05:05:33;-1.60;99.90
19389;DHT22;9830;41.876;23.474;2024-02-21T05:07:58;-1.60;99.90
19389;DHT22;9830;41.876;23.474;2024-02-21T05:10:24;-1.70;99.90
19389;DHT22;9830;41.876;23.474;2024-02-21T05:12:49;-1.70;99.90
19389;DHT22;9830;41.876;23.474;2024-02-21T05:15:15;-1.70;99.90
19389;DHT22;9830;41.876;23.474;2024-02-21T05:17:41;-1.80;99.90
19389;DHT22;9830;41.876;23.474;2024-02-21T05:20:08;-1.80;99.90
19389;DHT22;9830;41.876;23.474;2024-02-21T05:22:34;-1.80;99.90
19389;DHT22;9830;41.876;23.474;2024-02-21T05:25:00;-1.80;99.90
19389;DHT22;9830;41.876;23.474;2024-02-21T05:27:25;-1.90;99.90
19389;DHT22;9830;41.876;23.474;2024-02-21T05:29:53;-1.80;99.90
19389;DHT22;9830;41.876;23.474;2024-02-21T05:32:18;-1.80;99.90
19389;DHT22;9830;41.876;23.474;2024-02-21T05:34:44;-1.50;99.90
19389;DHT22;9830;41.876;23.474;2024-02-21T05:37:10;-1.20;99.90
19389;DHT22;9830;41.876;23.474;2024-02-21T05:39:35;-0.70;99.90
19389;DHT22;9830;41.876;23.474;2024-02-21T05:42:01;-0.10;99.90
19389;DHT22;9830;41.876;23.474;2024-02-21T05:44:26;0.70;99.90
19389;DHT22;9830;41.876;23.474;2024-02-21T05:46:52;1.00;99.90
19389;DHT22;9830;41.876;23.474;2024-02-21T05:49:18;1.50;99.90
19389;DHT22;9830;41.876;23.474;2024-02-21T05:51:44;1.50;99.90
19389;DHT22;9830;41.876;23.474;2024-02-21T05:54:09;2.50;99.90
19389;DHT22;9830;41.876;23.474;2024-02-21T05:56:35;3.60;99.90
19389;DHT22;9830;41.876;23.474;2024-02-21T05:59:00;4.30;99.90
19389;DHT22;9830;41.876;23.474;2024-02-21T06:01:27;4.60;99.90
19389;DHT22;9830;41.876;23.474;2024-02-21T06:03:53;4.90;99.90
19389;DHT22;9830;41.876;23.474;2024-02-21T06:06:19;5.50;99.90
19389;DHT22;9830;41.876;23.474;2024-02-21T06:08:47;5.40;99.90
19389;DHT22;9830;41.876;23.474;2024-02-21T06:11:12;6.00;99.90
19389;DHT22;9830;41.876;23.474;2024-02-21T06:13:40;7.20;99.90
19389;DHT22;9830;41.876;23.474;2024-02-21T06:16:07;6.10;99.90
19389;DHT22;9830;41.876;23.474;2024-02-21T06:18:34;7.10;99.90
19389;DHT22;9830;41.876;23.474;2024-02-21T06:21:00;7.40;99.90
19389;DHT22;9830;41.876;23.474;2024-02-21T06:23:26;7.50;99.90
19389;DHT22;9830;41.876;23.474;2024-02-21T06:25:51;7.30;99.90
19389;DHT22;9830;41.876;23.474;2024-02-21T06:28:17;8.20;99.90
19389;DHT22;9830;41.876;23.474;2024-02-21T06:30:43;7.50;99.90
19389;DHT22;9830;41.876;23.474;2024-02-21T06:33:08;8.30;99.90
19389;DHT22;9830;41.876;23.474;2024-02-21T06:35:34;10.20;96.10
19389;DHT22;9830;41.876;23.474;2024-02-21T06:38:00;10.60;92.10
19389;DHT22;9830;41.876;23.474;2024-02-21T06:40:25;11.60;85.00
19389;DHT22;9830;41.876;23.474;2024-02-21T06:42:51;11.20;84.20
19389;DHT22;9830;41.876;23.474;2024-02-21T06:45:17;10.60;87.50
19389;DHT22;9830;41.876;23.474;2024-02-21T06:47:43;10.30;86.30
19389;DHT22;9830;41.876;23.474;2024-02-21T06:50:09;10.10;90.20
19389;DHT22;9830;41.876;23.474;2024-02-21T06:52:36;10.20;90.90
19389;DHT22;9830;41.876;23.474;2024-02-21T06:55:02;10.60;78.20
19389;DHT22;9830;41.876;23.474;2024-02-21T06:57:31;12.30;70.20
19389;DHT22;9830;41.876;23.474;2024-02-21T06:59:57;13.00;63.00
19389;DHT22;9830;41.876;23.474;2024-02-21T07:02:22;13.50;62.50
19389;DHT22;9830;41.876;23.474;2024-02-21T07:04:48;14.50;56.10
19389;DHT22;9830;41.876;23.474;2024-02-21T07:07:14;14.50;54.20
19389;DHT22;9830;41.876;23.474;2024-02-21T07:09:39;12.30;59.00
19389;DHT22;9830;41.876;23.474;2024-02-21T07:12:05;12.20;69.00
19389;DHT22;9830;41.876;23.474;2024-02-21T07:14:35;14.00;55.50
19389;DHT22;9830;41.876;23.474;2024-02-21T07:17:01;14.40;54.40
19389;DHT22;9830;41.876;23.474;2024-02-21T07:19:27;13.70;53.50
19389;DHT22;9830;41.876;23.474;2024-02-21T07:21:52;13.40;55.60
19389;DHT22;9830;41.876;23.474;2024-02-21T07:24:18;15.00;50.00
19389;DHT22;9830;41.876;23.474;2024-02-21T07:26:44;15.20;48.80
19389;DHT22;9830;41.876;23.474;2024-02-21T07:29:10;12.90;56.10
19389;DHT22;9830;41.876;23.474;2024-02-21T07:31:42;14.40;53.50
19389;DHT22;9830;41.876;23.474;2024-02-21T07:34:08;15.30;49.20
19389;DHT22;9830;41.876;23.474;2024-02-21T07:36:34;14.60;50.50
19389;DHT22;9830;41.876;23.474;2024-02-21T07:39:00;13.20;53.40
19389;DHT22;9830;41.876;23.474;2024-02-21T07:41:25;14.80;51.00
19389;DHT22;9830;41.876;23.474;2024-02-21T07:43:52;16.50;46.00
19389;DHT22;9830;41.876;23.474;2024-02-21T07:46:18;17.30;43.60
19389;DHT22;9830;41.876;23.474;2024-02-21T07:48:45;16.60;43.20
19389;DHT22;9830;41.876;23.474;2024-02-21T07:51:12;15.70;47.40
19389;DHT22;9830;41.876;23.474;2024-02-21T07:53:39;16.70;44.60
19389;DHT22;9830;41.876;23.474;2024-02-21T07:56:13;18.40;40.90
19389;DHT22;9830;41.876;23.474;2024-02-21T07:58:40;18.70;39.50
19389;DHT22;9830;41.876;23.474;2024-02-21T08:01:06;17.70;40.40
19389;DHT22;9830;41.876;23.474;2024-02-21T08:03:31;18.50;39.60
19389;DHT22;9830;41.876;23.474;2024-02-21T08:05:57;18.70;38.80
19389;DHT22;9830;41.876;23.474;2024-02-21T08:08:23;17.90;39.70
19389;DHT22;9830;41.876;23.474;2024-02-21T08:10:50;18.30;39.70
19389;DHT22;9830;41.876;23.474;2024-02-21T08:13:16;17.70;40.20
19389;DHT22;9830;41.876;23.474;2024-02-21T08:15:42;17.90;40.70
19389;DHT22;9830;41.876;23.474;2024-02-21T08:18:08;17.80;40.40
19389;DHT22;9830;41.876;23.474;2024-02-21T08:20:34;17.60;41.10
19389;DHT22;9830;41.876;23.474;2024-02-21T08:23:00;18.30;40.50
19389;DHT22;9830;41.876;23.474;2024-02-21T08:25:26;18.50;39.30
19389;DHT22;9830;41.876;23.474;2024-02-21T08:27:53;18.70;38.90
19389;DHT22;9830;41.876;23.474;2024-02-21T08:30:19;18.10;39.80
19389;DHT22;9830;41.876;23.474;2024-02-21T08:32:45;18.50;39.80
19389;DHT22;9830;41.876;23.474;2024-02-21T08:35:11;18.50;39.60
19389;DHT22;9830;41.876;23.474;2024-02-21T08:37:37;18.60;38.80
19389;DHT22;9830;41.876;23.474;2024-02-21T08:40:04;17.90;39.60
19389;DHT22;9830;41.876;23.474;2024-02-21T08:42:40;18.70;39.90
19389;DHT22;9830;41.876;23.474;2024-02-21T08:45:06;20.10;37.80
19389;DHT22;9830;41.876;23.474;2024-02-21T08:47:32;20.20;36.90
19389;DHT22;9830;41.876;23.474;2024-02-21T08:49:58;20.00;37.10
19389;DHT22;9830;41.876;23.474;2024-02-21T08:52:24;20.20;37.00
19389;DHT22;9830;41.876;23.474;2024-02-21T08:54:49;19.90;37.70
19389;DHT22;9830;41.876;23.474;2024-02-21T08:57:16;19.50;38.20
19389;DHT22;9830;41.876;23.474;2024-02-21T08:59:42;18.70;39.70
19389;DHT22;9830;41.876;23.474;2024-02-21T09:02:07;19.10;38.80
19389;DHT22;9830;41.876;23.474;2024-02-21T09:04:34;18.20;39.90
19389;DHT22;9830;41.876;23.474;2024-02-21T09:07:00;19.00;39.70
19389;DHT22;9830;41.876;23.474;2024-02-21T09:09:25;19.20;39.10
19389;DHT22;9830;41.876;23.474;2024-02-21T09:11:53;18.80;39.30
19389;DHT22;9830;41.876;23.474;2024-02-21T09:14:19;19.10;38.40
19389;DHT22;9830;41.876;23.474;2024-02-21T09:16:45;19.30;37.80
19389;DHT22;9830;41.876;23.474;2024-02-21T09:19:11;19.00;36.70
19389;DHT22;9830;41.876;23.474;2024-02-21T09:21:37;19.80;36.10
19389;DHT22;9830;41.876;23.474;2024-02-21T09:24:04;20.00;36.40
19389;DHT22;9830;41.876;23.474;2024-02-21T09:26:30;19.80;35.30
19389;DHT22;9830;41.876;23.474;2024-02-21T09:28:56;19.60;36.20
19389;DHT22;9830;41.876;23.474;2024-02-21T09:31:22;19.00;38.50
19389;DHT22;9830;41.876;23.474;2024-02-21T09:33:47;18.40;37.10
19389;DHT22;9830;41.876;23.474;2024-02-21T09:36:13;18.90;38.20
19389;DHT22;9830;41.876;23.474;2024-02-21T09:38:40;19.30;38.10
19389;DHT22;9830;41.876;23.474;2024-02-21T09:41:16;18.80;37.90
19389;DHT22;9830;41.876;23.474;2024-02-21T09:43:45;18.50;38.90
19389;DHT22;9830;41.876;23.474;2024-02-21T09:46:19;19.00;38.30
19389;DHT22;9830;41.876;23.474;2024-02-21T09:51:40;18.50;39.50
19389;DHT22;9830;41.876;23.474;2024-02-21T09:54:07;18.30;39.90
19389;DHT22;9830;41.876;23.474;2024-02-21T09:56:33;18.10;41.50
19389;DHT22;9830;41.876;23.474;2024-02-21T09:58:59;17.80;40.40
19389;DHT22;9830;41.876;23.474;2024-02-21T10:01:30;18.30;42.00
19389;DHT22;9830;41.876;23.474;2024-02-21T10:03:57;17.90;39.30
19389;DHT22;9830;41.876;23.474;2024-02-21T10:06:23;17.90;38.80
19389;DHT22;9830;41.876;23.474;2024-02-21T10:08:53;18.30;39.20
19389;DHT22;9830;41.876;23.474;2024-02-21T10:11:23;18.00;38.60
19389;DHT22;9830;41.876;23.474;2024-02-21T10:13:49;17.90;39.60
19389;DHT22;9830;41.876;23.474;2024-02-21T10:16:15;18.40;38.70
19389;DHT22;9830;41.876;23.474;2024-02-21T10:18:41;18.60;38.40
19389;DHT22;9830;41.876;23.474;2024-02-21T10:21:07;18.20;38.80
19389;DHT22;9830;41.876;23.474;2024-02-21T10:23:44;18.30;40.60
19389;DHT22;9830;41.876;23.474;2024-02-21T10:26:10;18.30;40.40
19389;DHT22;9830;41.876;23.474;2024-02-21T10:28:37;18.00;41.80
19389;DHT22;9830;41.876;23.474;2024-02-21T10:31:08;17.60;41.90
19389;DHT22;9830;41.876;23.474;2024-02-21T10:33:34;17.60;42.00
19389;DHT22;9830;41.876;23.474;2024-02-21T10:36:09;17.20;39.90
19389;DHT22;9830;41.876;23.474;2024-02-21T10:38:39;17.30;42.30
19389;DHT22;9830;41.876;23.474;2024-02-21T10:41:07;17.40;44.00
19389;DHT22;9830;41.876;23.474;2024-02-21T10:43:41;17.70;43.60
19389;DHT22;9830;41.876;23.474;2024-02-21T10:46:07;17.40;41.80
19389;DHT22;9830;41.876;23.474;2024-02-21T10:48:44;17.40;41.50
19389;DHT22;9830;41.876;23.474;2024-02-21T10:51:18;16.80;42.40
19389;DHT22;9830;41.876;23.474;2024-02-21T10:54:05;17.10;46.10
19389;DHT22;9830;41.876;23.474;2024-02-21T10:56:33;16.90;46.60
19389;DHT22;9830;41.876;23.474;2024-02-21T10:59:04;17.20;44.20
19389;DHT22;9830;41.876;23.474;2024-02-21T11:01:30;16.80;42.10
19389;DHT22;9830;41.876;23.474;2024-02-21T11:04:05;17.00;44.10
19389;DHT22;9830;41.876;23.474;2024-02-21T11:06:33;16.40;47.40
19389;DHT22;9830;41.876;23.474;2024-02-21T11:09:05;15.90;47.90
19389;DHT22;9830;41.876;23.474;2024-02-21T11:11:38;15.10;50.90
19389;DHT22;9830;41.876;23.474;2024-02-21T11:14:26;14.40;55.30
19389;DHT22;9830;41.876;23.474;2024-02-21T11:16:52;14.20;58.10
19389;DHT22;9830;41.876;23.474;2024-02-21T11:19:21;13.60;59.10
19389;DHT22;9830;41.876;23.474;2024-02-21T11:21:47;13.80;63.20
19389;DHT22;9830;41.876;23.474;2024-02-21T11:24:13;13.70;65.30
19389;DHT22;9830;41.876;23.474;2024-02-21T11:26:40;13.70;65.70
19389;DHT22;9830;41.876;23.474;2024-02-21T11:29:07;13.50;70.30
19389;DHT22;9830;41.876;23.474;2024-02-21T11:31:43;13.20;66.50
19389;DHT22;9830;41.876;23.474;2024-02-21T11:34:10;13.20;68.80
19389;DHT22;9830;41.876;23.474;2024-02-21T11:36:36;13.50;66.30
19389;DHT22;9830;41.876;23.474;2024-02-21T11:39:11;13.00;67.20
19389;DHT22;9830;41.876;23.474;2024-02-21T11:41:36;13.10;66.70
19389;DHT22;9830;41.876;23.474;2024-02-21T11:44:02;12.90;66.40
19389;DHT22;9830;41.876;23.474;2024-02-21T11:46:29;13.20;64.50
19389;DHT22;9830;41.876;23.474;2024-02-21T11:48:55;13.00;65.70
19389;DHT22;9830;41.876;23.474;2024-02-21T11:51:25;12.90;64.10
19389;DHT22;9830;41.876;23.474;2024-02-21T11:53:52;13.10;62.70
19389;DHT22;9830;41.876;23.474;2024-02-21T11:56:19;13.10;66.10
19389;DHT22;9830;41.876;23.474;2024-02-21T11:58:46;13.10;61.60
19389;DHT22;9830;41.876;23.474;2024-02-21T12:01:13;12.80;62.40
19389;DHT22;9830;41.876;23.474;2024-02-21T12:03:39;12.90;67.10
19389;DHT22;9830;41.876;23.474;2024-02-21T12:06:07;12.80;63.50
19389;DHT22;9830;41.876;23.474;2024-02-21T12:08:42;12.60;63.00
19389;DHT22;9830;41.876;23.474;2024-02-21T12:11:22;12.90;62.70
19389;DHT22;9830;41.876;23.474;2024-02-21T12:14:01;13.00;56.90
19389;DHT22;9830;41.876;23.474;2024-02-21T12:16:33;12.80;56.60
19389;DHT22;9830;41.876;23.474;2024-02-21T12:19:00;12.80;58.30
19389;DHT22;9830;41.876;23.474;2024-02-21T12:21:30;12.90;57.10
19389;DHT22;9830;41.876;23.474;2024-02-21T12:23:56;13.00;58.60
19389;DHT22;9830;41.876;23.474;2024-02-21T12:26:22;13.10;56.10
19389;DHT22;9830;41.876;23.474;2024-02-21T12:28:48;13.00;57.50
19389;DHT22;9830;41.876;23.474;2024-02-21T12:31:13;13.00;58.60
19389;DHT22;9830;41.876;23.474;2024-02-21T12:33:39;13.30;57.50
19389;DHT22;9830;41.876;23.474;2024-02-21T12:36:05;13.50;58.20
19389;DHT22;9830;41.876;23.474;2024-02-21T12:38:31;13.50;55.80
19389;DHT22;9830;41.876;23.474;2024-02-21T12:40:57;13.40;58.10
19389;DHT22;9830;41.876;23.474;2024-02-21T12:43:23;13.40;56.80
19389;DHT22;9830;41.876;23.474;2024-02-21T12:45:49;13.10;54.80
19389;DHT22;9830;41.876;23.474;2024-02-21T12:48:15;13.10;57.00
19389;DHT22;9830;41.876;23.474;2024-02-21T12:50:49;12.80;56.70
19389;DHT22;9830;41.876;23.474;2024-02-21T12:53:16;12.60;57.20
19389;DHT22;9830;41.876;23.474;2024-02-21T12:55:41;12.30;57.20
19389;DHT22;9830;41.876;23.474;2024-02-21T12:58:07;12.50;58.40
19389;DHT22;9830;41.876;23.474;2024-02-21T13:00:34;12.50;56.90
19389;DHT22;9830;41.876;23.474;2024-02-21T13:03:01;11.70;59.10
19389;DHT22;9830;41.876;23.474;2024-02-21T13:05:26;11.60;60.70
19389;DHT22;9830;41.876;23.474;2024-02-21T13:07:53;11.80;58.10
19389;DHT22;9830;41.876;23.474;2024-02-21T13:10:19;11.70;57.90
19389;DHT22;9830;41.876;23.474;2024-02-21T13:12:45;11.90;57.50
19389;DHT22;9830;41.876;23.474;2024-02-21T13:15:11;12.00;55.10
19389;DHT22;9830;41.876;23.474;2024-02-21T13:17:37;12.00;55.70
19389;DHT22;9830;41.876;23.474;2024-02-21T13:20:03;12.30;57.40
19389;DHT22;9830;41.876;23.474;2024-02-21T13:22:29;12.10;58.10
19389;DHT22;9830;41.876;23.474;2024-02-21T13:24:55;12.20;55.20
19389;DHT22;9830;41.876;23.474;2024-02-21T13:27:20;12.20;55.10
19389;DHT22;9830;41.876;23.474;2024-02-21T13:29:46;12.40;55.40
19389;DHT22;9830;41.876;23.474;2024-02-21T13:32:12;12.40;54.80
19389;DHT22;9830;41.876;23.474;2024-02-21T13:34:37;12.50;56.10
19389;DHT22;9830;41.876;23.474;2024-02-21T13:37:03;12.70;56.20
19389;DHT22;9830;41.876;23.474;2024-02-21T13:39:30;12.80;54.50
19389;DHT22;9830;41.876;23.474;2024-02-21T13:41:55;12.90;51.90
19389;DHT22;9830;41.876;23.474;2024-02-21T13:44:21;13.00;52.00
19389;DHT22;9830;41.876;23.474;2024-02-21T13:46:47;12.90;52.50
19389;DHT22;9830;41.876;23.474;2024-02-21T13:49:12;12.70;54.10
19389;DHT22;9830;41.876;23.474;2024-02-21T13:51:38;12.60;55.40
19389;DHT22;9830;41.876;23.474;2024-02-21T13:54:06;12.50;54.00
19389;DHT22;9830;41.876;23.474;2024-02-21T13:56:34;12.40;53.10
19389;DHT22;9830;41.876;23.474;2024-02-21T13:59:00;12.30;51.90
19389;DHT22;9830;41.876;23.474;2024-02-21T14:01:26;12.50;53.10
19389;DHT22;9830;41.876;23.474;2024-02-21T14:03:53;12.70;53.50
19389;DHT22;9830;41.876;23.474;2024-02-21T14:06:19;12.80;53.20
19389;DHT22;9830;41.876;23.474;2024-02-21T14:08:45;12.90;52.00
19389;DHT22;9830;41.876;23.474;2024-02-21T14:11:11;12.80;52.70
19389;DHT22;9830;41.876;23.474;2024-02-21T14:13:36;12.60;53.30
19389;DHT22;9830;41.876;23.474;2024-02-21T14:16:02;12.30;52.90
19389;DHT22;9830;41.876;23.474;2024-02-21T14:18:28;12.10;53.20
19389;DHT22;9830;41.876;23.474;2024-02-21T14:20:54;12.10;53.30
19389;DHT22;9830;41.876;23.474;2024-02-21T14:23:20;12.00;55.40
19389;DHT22;9830;41.876;23.474;2024-02-21T14:25:46;11.70;56.20
19389;DHT22;9830;41.876;23.474;2024-02-21T14:28:12;11.40;58.30
19389;DHT22;9830;41.876;23.474;2024-02-21T14:30:38;11.30;57.70
19389;DHT22;9830;41.876;23.474;2024-02-21T14:33:03;11.10;58.30
19389;DHT22;9830;41.876;23.474;2024-02-21T14:35:29;10.70;59.30
19389;DHT22;9830;41.876;23.474;2024-02-21T14:37:55;10.40;61.90
19389;DHT22;9830;41.876;23.474;2024-02-21T14:40:22;10.10;61.20
19389;DHT22;9830;41.876;23.474;2024-02-21T14:42:48;10.10;64.60
19389;DHT22;9830;41.876;23.474;2024-02-21T14:45:14;10.10;66.40
19389;DHT22;9830;41.876;23.474;2024-02-21T14:47:40;9.90;67.40
19389;DHT22;9830;41.876;23.474;2024-02-21T14:50:06;9.90;69.10
19389;DHT22;9830;41.876;23.474;2024-02-21T14:52:33;9.80;67.70
19389;DHT22;9830;41.876;23.474;2024-02-21T14:54:59;9.80;66.70
19389;DHT22;9830;41.876;23.474;2024-02-21T14:57:25;9.70;68.40
19389;DHT22;9830;41.876;23.474;2024-02-21T14:59:50;9.70;69.00
19389;DHT22;9830;41.876;23.474;2024-02-21T15:02:22;9.60;66.80
19389;DHT22;9830;41.876;23.474;2024-02-21T15:04:48;9.40;66.30
19389;DHT22;9830;41.876;23.474;2024-02-21T15:07:14;9.40;68.10
19389;DHT22;9830;41.876;23.474;2024-02-21T15:09:40;9.40;71.30
19389;DHT22;9830;41.876;23.474;2024-02-21T15:12:06;9.40;71.00
19389;DHT22;9830;41.876;23.474;2024-02-21T15:14:31;9.30;70.70
19389;DHT22;9830;41.876;23.474;2024-02-21T15:16:57;9.20;73.00
19389;DHT22;9830;41.876;23.474;2024-02-21T15:19:23;9.10;73.30
19389;DHT22;9830;41.876;23.474;2024-02-21T15:21:49;9.00;73.50
19389;DHT22;9830;41.876;23.474;2024-02-21T15:24:15;9.00;75.00
19389;DHT22;9830;41.876;23.474;2024-02-21T15:26:42;8.90;74.50
19389;DHT22;9830;41.876;23.474;2024-02-21T15:29:08;8.80;74.70
19389;DHT22;9830;41.876;23.474;2024-02-21T15:31:34;8.80;72.80
19389;DHT22;9830;41.876;23.474;2024-02-21T15:34:00;8.80;74.00